Terminal Aerodrome Forecast
Issued by NWS Northern Indiana

Home | Current Version | Previous Version | Text Only | Print | Product List | Glossary On
Versions: 1 2 3 4 5 6 7 8 9 10 11 12 13 14 15 16 17 18 19
000
FTUS43 KIWX 170520
TAFFWA
TAF
KFWA 170520Z 1706/1806 11010KT 1/2SM RA FG OVC003 WS020/19035KT
     FM170900 17008KT 1SM -RA BR OVC006 WS020/21035KT
     FM171500 24010KT 3SM BR OVC006=

USA.gov is the U.S. government's official web portal to all federal, state and local government web resources and services.